Time;durP1;ratioP1;P1;durP2;ratioP2;P2;SDS_P1;SDS_P2;PMS_P1;PMS_P2;Temp;Humidity;BMP_temperature;BMP_pressure;BME280_temperature;BME280_humidity;BME280_pressure;Samples;Min_cycle;Max_cycle;Signal;HPM_P1;HPM_P2
2022/08/05 00:00:52;;;;;;;5.40;2.80;;;;;;;21.31;79.50;100638.17;107158;1284;74010;-81
2022/08/05 00:03:19;;;;;;;6.00;2.80;;;;;;;21.22;79.87;100650.94;106945;1284;62355;-81
2022/08/05 00:05:47;;;;;;;4.90;2.60;;;;;;;21.14;80.19;100641.91;107208;1283;59736;-81
2022/08/05 00:08:35;;;;;;;5.90;2.70;;;;;;;21.05;80.84;100642.30;106817;1284;75758;-81
2022/08/05 00:11:07;;;;;;;7.00;2.90;;;;;;;20.94;81.29;100650.55;107122;1283;70744;-82
2022/08/05 00:13:54;;;;;;;6.40;2.90;;;;;;;20.85;81.72;100653.48;106961;1284;75702;-81
2022/08/05 00:16:21;;;;;;;6.20;3.20;;;;;;;20.79;81.80;100651.98;106734;1283;62841;-81
2022/08/05 00:19:09;;;;;;;6.40;3.10;;;;;;;20.75;81.68;100657.42;107249;1284;64447;-81
2022/08/05 00:21:36;;;;;;;6.70;3.10;;;;;;;20.72;82.24;100655.30;106778;1284;75592;-82
2022/08/05 00:24:03;;;;;;;7.30;3.30;;;;;;;20.65;82.54;100659.07;107046;1283;71187;-82
2022/08/05 00:26:37;;;;;;;7.40;3.20;;;;;;;20.53;83.20;100666.59;106945;1284;74210;-81
2022/08/05 00:29:04;;;;;;;7.50;3.90;;;;;;;20.46;83.51;100667.85;107138;1284;61802;-81
2022/08/05 00:31:31;;;;;;;10.00;4.30;;;;;;;20.36;84.30;100673.23;107383;1282;61198;-81
2022/08/05 00:34:18;;;;;;;9.10;4.80;;;;;;;20.24;85.21;100683.18;107057;1283;73707;-81
2022/08/05 00:37:05;;;;;;;11.30;5.20;;;;;;;20.12;86.13;100685.96;107043;1284;73328;-81
2022/08/05 00:39:43;;;;;;;9.60;4.50;;;;;;;20.05;86.42;100679.02;106818;1284;74215;-82
2022/08/05 00:42:33;;;;;;;12.00;5.60;;;;;;;19.96;87.33;100683.04;106949;1282;62094;-83
2022/08/05 00:45:01;;;;;;;14.20;6.80;;;;;;;19.88;88.09;100679.59;107006;1284;61236;-82
2022/08/05 00:47:28;;;;;;;11.40;6.70;;;;;;;19.84;88.48;100679.77;106968;1284;74945;-81
2022/08/05 00:50:15;;;;;;;12.20;7.40;;;;;;;19.78;89.02;100668.61;106873;1283;70998;-80
2022/08/05 00:52:42;;;;;;;13.40;7.80;;;;;;;19.75;89.30;100669.73;107092;1282;72830;-80
2022/08/05 00:55:12;;;;;;;15.20;8.30;;;;;;;19.73;89.24;100673.80;107300;1283;62292;-81
2022/08/05 00:57:40;;;;;;;13.20;7.90;;;;;;;19.69;89.99;100677.55;107100;1282;61993;-81
2022/08/05 01:00:27;;;;;;;15.60;7.90;;;;;;;19.62;90.59;100678.09;107279;1281;74890;-82
2022/08/05 01:02:55;;;;;;;13.80;8.10;;;;;;;19.56;90.97;100673.17;107126;1282;72586;-81
2022/08/05 01:05:23;;;;;;;15.80;9.30;;;;;;;19.54;90.67;100669.48;106996;1282;72703;-81
2022/08/05 01:07:53;;;;;;;15.40;8.70;;;;;;;19.49;91.65;100676.13;107024;1282;61974;-80
2022/08/05 01:11:15;;;;;;;18.50;10.00;;;;;;;19.44;91.34;100678.39;106891;1281;62544;-80
2022/08/05 01:14:04;;;;;;;18.60;9.10;;;;;;;19.42;91.34;100674.58;107114;1282;73195;-81
2022/08/05 01:16:50;;;;;;;16.10;9.90;;;;;;;19.39;91.63;100670.95;106775;1284;72375;-81
2022/08/05 01:19:20;;;;;;;17.70;9.90;;;;;;;19.38;91.31;100653.73;107086;1284;72589;-80
2022/08/05 01:22:20;;;;;;;16.50;9.50;;;;;;;19.39;91.41;100657.72;106963;1282;63996;-80
2022/08/05 01:24:49;;;;;;;21.70;10.90;;;;;;;19.38;91.38;100661.96;106858;1283;62031;-80
2022/08/05 01:27:54;;;;;;;17.90;9.90;;;;;;;19.40;91.05;100658.31;107043;1282;75002;-80
2022/08/05 01:30:25;;;;;;;19.00;9.30;;;;;;;19.42;90.93;100660.35;107046;1283;71594;-80
2022/08/05 01:33:04;;;;;;;18.60;9.90;;;;;;;19.41;91.06;100662.71;107012;1284;74360;-81
2022/08/05 01:35:39;;;;;;;16.10;9.50;;;;;;;19.43;90.69;100661.82;107097;1284;61670;-80
2022/08/05 01:38:21;;;;;;;17.40;9.40;;;;;;;19.43;90.97;100664.11;107036;1283;60998;-80
2022/08/05 01:40:57;;;;;;;17.60;9.70;;;;;;;19.42;90.98;100674.41;106865;1284;74757;-82
2022/08/05 01:43:26;;;;;;;17.60;9.40;;;;;;;19.40;90.84;100676.13;107223;1283;70838;-81
2022/08/05 01:45:55;;;;;;;18.20;10.10;;;;;;;19.38;91.11;100667.92;106810;1284;74156;-81
2022/08/05 01:48:26;;;;;;;21.80;10.60;;;;;;;19.36;91.22;100657.59;106785;1284;62759;-81
2022/08/05 01:50:55;;;;;;;17.50;9.60;;;;;;;19.35;90.79;100664.14;107063;1284;60278;-80
2022/08/05 01:53:24;;;;;;;19.20;10.70;;;;;;;19.34;91.24;100680.05;106759;1283;76263;-82
2022/08/05 01:56:13;;;;;;;16.60;9.60;;;;;;;19.32;91.24;100685.44;106863;1284;72072;-80
2022/08/05 01:59:03;;;;;;;16.60;9.00;;;;;;;19.29;91.45;100682.29;106968;1284;75188;-80
2022/08/05 02:01:33;;;;;;;19.00;9.70;;;;;;;19.27;91.25;100677.36;106883;1284;62822;-80
2022/08/05 02:04:08;;;;;;;16.50;9.20;;;;;;;19.27;91.13;100674.05;107264;1284;60675;-80
2022/08/05 02:06:38;;;;;;;18.20;9.40;;;;;;;19.26;91.42;100673.62;107257;1284;77119;-80
2022/08/05 02:09:06;;;;;;;19.60;9.30;;;;;;;19.24;91.44;100662.98;106922;1284;70432;-80
2022/08/05 02:12:00;;;;;;;17.70;9.20;;;;;;;19.24;91.13;100647.85;106765;1284;73902;-80
2022/08/05 02:14:31;;;;;;;17.00;9.00;;;;;;;19.26;90.75;100631.66;106873;1284;61745;-80
2022/08/05 02:17:10;;;;;;;19.10;9.90;;;;;;;19.29;90.74;100642.48;106648;1284;59809;-80
2022/08/05 02:20:00;;;;;;;20.60;9.50;;;;;;;19.32;90.76;100656.48;106943;1283;77301;-80
2022/08/05 02:22:30;;;;;;;17.60;9.60;;;;;;;19.31;90.43;100666.34;107042;1283;71516;-81
2022/08/05 02:25:34;;;;;;;18.70;9.00;;;;;;;19.27;90.92;100670.95;107168;1283;73846;-80
2022/08/05 02:28:21;;;;;;;18.20;9.60;;;;;;;19.24;90.93;100668.61;107112;1283;62258;-80
2022/08/05 02:31:01;;;;;;;15.30;9.20;;;;;;;19.23;90.81;100653.15;107171;1284;62035;-81
2022/08/05 02:33:34;;;;;;;20.20;9.90;;;;;;;19.26;90.80;100642.19;107206;1282;74977;-80
2022/08/05 02:36:10;;;;;;;18.70;9.80;;;;;;;19.28;91.01;100605.52;106829;1284;70882;-81
2022/08/05 02:38:43;;;;;;;18.00;9.40;;;;;;;19.30;91.29;100562.74;107299;1284;72979;-82
2022/08/05 02:41:21;;;;;;;17.10;9.90;;;;;;;19.29;91.49;100588.16;107025;1284;62498;-83
2022/08/05 02:43:50;;;;;;;18.00;10.10;;;;;;;19.28;91.73;100599.27;107222;1284;62010;-83
2022/08/05 02:46:40;;;;;;;17.30;9.80;;;;;;;19.25;91.73;100573.86;106939;1284;76515;-85
2022/08/05 02:49:28;;;;;;;21.60;10.80;;;;;;;19.25;92.57;100610.96;106774;1284;72293;-85
2022/08/05 02:52:08;;;;;;;24.80;11.60;;;;;;;19.22;92.73;100659.74;107000;1283;72976;-83
2022/08/05 02:54:39;;;;;;;19.10;10.70;;;;;;;19.17;93.51;100672.00;106748;1284;62748;-82
2022/08/05 02:57:10;;;;;;;19.10;11.10;;;;;;;19.10;94.84;100666.52;107060;1284;61963;-83
2022/08/05 02:59:57;;;;;;;18.40;11.10;;;;;;;19.03;95.62;100627.64;106979;1284;77146;-83
2022/08/05 03:02:32;;;;;;;19.50;10.90;;;;;;;18.99;95.31;100554.34;107210;1283;72442;-82
2022/08/05 03:05:00;;;;;;;22.70;11.00;;;;;;;18.97;95.72;100526.73;107343;1284;73997;-83
2022/08/05 03:07:29;;;;;;;17.40;11.70;;;;;;;18.97;95.61;100549.25;106937;1284;62236;-82
2022/08/05 03:10:15;;;;;;;22.10;12.20;;;;;;;18.96;95.59;100554.84;107046;1284;62978;-82
2022/08/05 03:12:52;;;;;;;22.20;12.10;;;;;;;18.97;95.88;100549.90;107131;1283;75980;-83
2022/08/05 03:15:21;;;;;;;21.10;12.60;;;;;;;18.98;96.18;100552.61;107094;1284;71403;-83
2022/08/05 03:17:51;;;;;;;20.20;11.10;;;;;;;18.97;96.08;100557.80;107187;1282;72998;-83
2022/08/05 03:20:22;;;;;;;14.90;8.60;;;;;;;18.93;97.83;100579.81;106939;1284;62097;-82
2022/08/05 03:22:51;;;;;;;21.70;10.90;;;;;;;18.87;98.30;100584.73;107122;1284;61611;-83
2022/08/05 03:25:19;;;;;;;18.00;9.60;;;;;;;18.81;99.13;100585.42;106964;1284;76262;-83
2022/08/05 03:28:01;;;;;;;17.60;10.00;;;;;;;18.74;100.00;100585.73;107036;1284;71515;-82
2022/08/05 03:30:31;;;;;;;20.70;11.50;;;;;;;18.71;100.00;100591.29;107031;1284;73208;-83
2022/08/05 03:33:05;;;;;;;21.70;11.90;;;;;;;18.69;100.00;100607.27;106828;1284;62105;-81
2022/08/05 03:35:33;;;;;;;19.60;11.20;;;;;;;18.71;99.81;100621.87;106755;1284;59764;-83
2022/08/05 03:38:10;;;;;;;20.50;11.90;;;;;;;18.72;99.39;100625.49;107014;1284;75681;-83
2022/08/05 03:40:45;;;;;;;18.80;12.00;;;;;;;18.73;99.39;100624.56;107067;1284;71655;-83
2022/08/05 03:43:15;;;;;;;22.50;12.40;;;;;;;18.73;99.51;100636.18;107213;1283;72932;-82
2022/08/05 03:46:07;;;;;;;22.40;12.40;;;;;;;18.74;99.54;100646.97;107245;1284;65136;-83
2022/08/05 03:48:35;;;;;;;19.70;12.20;;;;;;;18.74;99.76;100647.17;107260;1283;60323;-84
2022/08/05 03:51:27;;;;;;;19.90;11.50;;;;;;;18.75;99.56;100635.95;107145;1284;75012;-83
2022/08/05 03:54:20;;;;;;;20.70;11.60;;;;;;;18.75;99.64;100632.02;107226;1284;72981;-82
2022/08/05 03:57:11;;;;;;;21.00;12.10;;;;;;;18.78;99.57;100640.04;107116;1284;76199;-82
2022/08/05 03:59:48;;;;;;;21.40;11.80;;;;;;;18.80;99.48;100634.60;107013;1284;62229;-82
2022/08/05 04:02:24;;;;;;;18.00;11.90;;;;;;;18.81;99.26;100628.00;107274;1284;60683;-83
2022/08/05 04:05:11;;;;;;;21.10;11.40;;;;;;;18.82;98.92;100634.21;107091;1284;73764;-83
2022/08/05 04:07:40;;;;;;;21.20;11.90;;;;;;;18.84;98.85;100627.97;106740;1284;71887;-83
2022/08/05 04:10:25;;;;;;;18.80;11.40;;;;;;;18.87;98.83;100625.05;106964;1284;73044;-82
2022/08/05 04:12:55;;;;;;;18.40;11.10;;;;;;;18.88;98.34;100621.10;107293;1284;61285;-82
2022/08/05 04:15:25;;;;;;;19.00;11.70;;;;;;;18.89;98.38;100621.05;107141;1283;61069;-83
2022/08/05 04:18:02;;;;;;;19.10;11.40;;;;;;;18.89;98.15;100619.14;107141;1284;75956;-84
2022/08/05 04:20:32;;;;;;;19.80;11.40;;;;;;;18.90;98.08;100620.06;107212;1283;71443;-83
2022/08/05 04:22:59;;;;;;;19.60;11.10;;;;;;;18.91;98.12;100623.56;107045;1284;72984;-83
2022/08/05 04:25:27;;;;;;;20.40;12.20;;;;;;;18.92;98.17;100635.48;107506;1284;63382;-82
2022/08/05 04:28:13;;;;;;;17.40;10.80;;;;;;;18.92;98.59;100646.50;106879;1284;63271;-82
2022/08/05 04:30:43;;;;;;;19.60;11.70;;;;;;;18.92;98.56;100648.01;107093;1284;75863;-83
2022/08/05 04:33:10;;;;;;;18.10;11.30;;;;;;;18.92;98.54;100650.86;107118;1284;71355;-83
2022/08/05 04:35:37;;;;;;;20.90;11.00;;;;;;;18.92;98.51;100653.54;107028;1284;73983;-82
2022/08/05 04:38:24;;;;;;;21.30;10.80;;;;;;;18.93;98.48;100650.02;106379;1284;64611;-83
2022/08/05 04:41:05;;;;;;;22.20;10.80;;;;;;;18.95;98.44;100650.17;106931;1283;60668;-83
2022/08/05 04:43:34;;;;;;;20.70;11.10;;;;;;;18.99;98.54;100647.52;106944;1283;74053;-81
2022/08/05 04:46:06;;;;;;;20.20;10.70;;;;;;;19.02;98.56;100649.44;107012;1284;72181;-82
2022/08/05 04:48:32;;;;;;;20.30;12.00;;;;;;;19.04;98.55;100645.41;106612;1284;72992;-83
2022/08/05 04:51:00;;;;;;;19.80;11.00;;;;;;;19.06;98.58;100639.96;107241;1284;62193;-83
2022/08/05 04:53:36;;;;;;;22.10;11.60;;;;;;;19.05;98.51;100642.00;107001;1284;61822;-83
2022/08/05 04:56:08;;;;;;;21.70;11.80;;;;;;;19.04;98.51;100646.44;107048;1284;76148;-81
2022/08/05 04:58:55;;;;;;;23.30;11.80;;;;;;;19.02;98.54;100658.67;107083;1284;71864;-82
2022/08/05 05:01:22;;;;;;;19.20;11.90;;;;;;;18.98;98.52;100655.58;106762;1283;73110;-82
2022/08/05 05:04:09;;;;;;;23.30;12.60;;;;;;;18.99;98.53;100651.56;106926;1284;62964;-82
2022/08/05 05:06:36;;;;;;;19.50;12.20;;;;;;;19.02;98.44;100660.89;107023;1284;59655;-82
2022/08/05 05:09:11;;;;;;;20.60;12.00;;;;;;;19.04;98.28;100665.13;107255;1284;76165;-82
2022/08/05 05:11:43;;;;;;;22.10;12.00;;;;;;;19.10;98.50;100662.26;106620;1284;71449;-82
2022/08/05 05:14:23;;;;;;;20.40;12.50;;;;;;;19.12;97.95;100662.59;106850;1284;75447;-81
2022/08/05 05:16:58;;;;;;;23.40;11.50;;;;;;;19.18;97.71;100655.06;107131;1283;62348;-81
2022/08/05 05:19:26;;;;;;;21.40;12.60;;;;;;;19.21;97.39;100655.25;107009;1284;61325;-82
2022/08/05 05:22:05;;;;;;;19.50;11.90;;;;;;;19.32;97.46;100652.92;106778;1284;74633;-82
2022/08/05 05:24:55;;;;;;;19.50;11.20;;;;;;;19.42;96.68;100644.61;107306;1284;72213;-82
2022/08/05 05:27:27;;;;;;;16.00;10.30;;;;;;;19.50;96.42;100641.40;107096;1284;74205;-82
2022/08/05 05:30:08;;;;;;;19.50;10.90;;;;;;;19.60;95.73;100645.80;106930;1284;62162;-81
2022/08/05 05:32:55;;;;;;;19.20;10.70;;;;;;;19.68;95.20;100655.09;107175;1284;64234;-81
2022/08/05 05:35:27;;;;;;;18.70;10.50;;;;;;;19.75;94.90;100661.59;106727;1284;75992;-82
2022/08/05 05:38:07;;;;;;;19.10;11.30;;;;;;;19.81;94.24;100664.09;107278;1283;71288;-81
2022/08/05 05:40:35;;;;;;;16.60;10.90;;;;;;;19.92;94.34;100662.63;106908;1284;73014;-82
2022/08/05 05:43:02;;;;;;;19.10;11.70;;;;;;;20.05;93.77;100663.25;107127;1284;63414;-81
2022/08/05 05:45:34;;;;;;;16.60;10.00;;;;;;;20.13;92.99;100661.91;106669;1284;61208;-82
2022/08/05 05:48:01;;;;;;;16.20;9.00;;;;;;;20.14;91.41;100658.73;107089;1284;75497;-82
2022/08/05 05:50:35;;;;;;;15.10;9.50;;;;;;;20.07;91.01;100665.02;106929;1283;71290;-82
2022/08/05 05:53:14;;;;;;;15.90;8.80;;;;;;;19.96;91.04;100680.52;107260;1284;73604;-82
2022/08/05 05:55:49;;;;;;;14.90;8.40;;;;;;;19.83;90.75;100685.20;106927;1284;62717;-82
2022/08/05 05:58:27;;;;;;;13.70;8.70;;;;;;;19.67;90.97;100686.11;107123;1284;62003;-82
2022/08/05 06:00:58;;;;;;;14.10;8.50;;;;;;;19.56;91.33;100689.70;106848;1284;75270;-82
2022/08/05 06:03:38;;;;;;;14.00;8.30;;;;;;;19.49;91.67;100691.68;107053;1284;72702;-83
2022/08/05 06:06:26;;;;;;;13.40;8.10;;;;;;;19.41;92.01;100689.02;106634;1284;76858;-82
2022/08/05 06:08:59;;;;;;;16.10;8.10;;;;;;;19.34;92.13;100689.71;107038;1284;62186;-82
2022/08/05 06:11:26;;;;;;;13.80;7.80;;;;;;;19.25;92.86;100695.36;107122;1284;60053;-82
2022/08/05 06:13:55;;;;;;;13.80;8.00;;;;;;;19.17;92.85;100699.54;106733;1284;75824;-81
2022/08/05 06:16:22;;;;;;;10.80;7.70;;;;;;;19.09;93.06;100707.90;106898;1284;71942;-82
2022/08/05 06:18:57;;;;;;;14.20;7.80;;;;;;;18.99;93.91;100729.73;106875;1284;73805;-82
2022/08/05 06:21:31;;;;;;;12.60;7.60;;;;;;;18.88;94.13;100765.05;106754;1284;62026;-82
2022/08/05 06:24:07;;;;;;;13.20;6.80;;;;;;;18.80;94.03;100808.73;106920;1284;60847;-82
2022/08/05 06:26:39;;;;;;;14.80;7.20;;;;;;;18.69;95.09;100843.48;107055;1284;76187;-82
2022/08/05 06:29:19;;;;;;;14.00;8.20;;;;;;;18.53;96.72;100830.48;106990;1284;71822;-81
2022/08/05 06:32:07;;;;;;;19.20;9.70;;;;;;;18.31;98.30;100843.89;106756;1284;76305;-83
2022/08/05 06:34:53;;;;;;;17.70;9.70;;;;;;;18.05;100.00;100869.64;107062;1284;62080;-82
2022/08/05 06:37:23;;;;;;;15.90;9.70;;;;;;;17.85;100.00;100840.19;106362;1285;61337;-82
2022/08/05 06:40:11;;;;;;;17.80;9.80;;;;;;;17.71;100.00;100765.48;106967;1284;76564;-82
2022/08/05 06:42:39;;;;;;;18.90;11.20;;;;;;;17.66;100.00;100727.40;106928;1284;71705;-82
2022/08/05 06:45:07;;;;;;;18.90;11.60;;;;;;;17.67;100.00;100720.98;106846;1284;73023;-83
2022/08/05 06:47:36;;;;;;;21.70;11.30;;;;;;;17.68;100.00;100709.68;106701;1284;61961;-82
2022/08/05 06:50:25;;;;;;;18.30;10.90;;;;;;;17.70;100.00;100707.39;106951;1284;64067;-83
2022/08/05 06:52:55;;;;;;;17.60;10.70;;;;;;;17.72;100.00;100698.20;106754;1284;75472;-83
2022/08/05 06:55:37;;;;;;;20.10;10.70;;;;;;;17.74;100.00;100680.39;106842;1284;71415;-83
2022/08/05 06:58:08;;;;;;;18.70;10.70;;;;;;;17.76;100.00;100675.84;107050;1281;74103;-84
2022/08/05 07:00:58;;;;;;;17.40;10.10;;;;;;;17.78;100.00;100678.54;106822;1284;63876;-84
2022/08/05 07:03:27;;;;;;;18.50;9.80;;;;;;;17.79;100.00;100683.41;106776;1284;62195;-84
2022/08/05 07:06:01;;;;;;;19.20;10.70;;;;;;;17.79;100.00;100681.70;106820;1283;75571;-84
2022/08/05 07:08:41;;;;;;;17.10;9.90;;;;;;;17.82;100.00;100669.84;107112;1282;70759;-84
2022/08/05 07:11:09;;;;;;;17.40;9.60;;;;;;;17.87;100.00;100666.70;106787;1284;73051;-84
2022/08/05 07:16:59;;;;;;;16.10;9.60;;;;;;;18.01;100.00;100662.28;106173;1290;61308;-84
2022/08/05 07:19:46;;;;;;;17.50;10.30;;;;;;;18.13;100.00;100660.00;107357;1283;76712;-85
2022/08/05 07:22:33;;;;;;;15.20;9.50;;;;;;;18.27;100.00;100661.38;106749;1284;72121;-85
2022/08/05 07:25:01;;;;;;;14.00;8.80;;;;;;;18.39;100.00;100670.08;106993;1284;71487;-85
2022/08/05 07:27:53;;;;;;;12.60;8.20;;;;;;;18.48;100.00;100678.56;107071;1282;64988;-85
2022/08/05 07:30:27;;;;;;;11.60;7.70;;;;;;;18.55;100.00;100677.95;106948;1284;60663;-85
2022/08/05 07:33:03;;;;;;;10.10;7.40;;;;;;;18.65;100.00;100682.18;107037;1282;76025;-85
2022/08/05 07:35:38;;;;;;;11.00;7.50;;;;;;;18.73;100.00;100690.09;107009;1281;70473;-86
2022/08/05 07:38:26;;;;;;;11.90;7.80;;;;;;;18.80;100.00;100692.96;106948;1284;74858;-87
2022/08/05 07:41:13;;;;;;;11.10;7.50;;;;;;;18.88;100.00;100695.66;106802;1284;62439;-87
2022/08/05 07:44:01;;;;;;;11.00;7.60;;;;;;;18.96;100.00;100694.34;106995;1284;62209;-87
2022/08/05 07:46:31;;;;;;;9.70;6.60;;;;;;;19.06;100.00;100696.04;107117;1282;74729;-86
2022/08/05 07:49:01;;;;;;;9.10;6.50;;;;;;;19.09;99.95;100697.36;106941;1284;71346;-86
2022/08/05 07:51:33;;;;;;;10.10;7.00;;;;;;;19.08;99.62;100697.34;106818;1283;72876;-87
2022/08/05 07:54:07;;;;;;;8.90;6.30;;;;;;;19.09;99.78;100696.27;107085;1283;62787;-86
2022/08/05 07:56:37;;;;;;;9.90;6.70;;;;;;;19.10;99.41;100685.38;106774;1282;61315;-86
2022/08/05 07:59:24;;;;;;;10.10;7.10;;;;;;;19.19;99.60;100677.38;107304;1284;73567;-86
2022/08/05 08:02:09;;;;;;;7.70;5.50;;;;;;;19.32;99.68;100679.93;107243;1284;71155;-86
2022/08/05 08:04:44;;;;;;;10.00;6.50;;;;;;;19.41;98.57;100688.64;106841;1284;73045;-85
2022/08/05 08:07:12;;;;;;;10.00;6.20;;;;;;;19.52;98.39;100692.77;107033;1284;63965;-83
2022/08/05 08:09:39;;;;;;;9.20;6.20;;;;;;;19.59;96.39;100701.10;106690;1284;60552;-85
2022/08/05 08:12:06;;;;;;;8.70;6.10;;;;;;;19.63;96.27;100698.45;106778;1284;76081;-85
2022/08/05 08:14:53;;;;;;;11.50;6.40;;;;;;;19.60;95.53;100695.96;106852;1284;73655;-86
2022/08/05 08:17:21;;;;;;;9.50;6.80;;;;;;;19.54;95.62;100697.40;106704;1284;73075;-86
2022/08/05 08:19:49;;;;;;;10.60;6.40;;;;;;;19.40;95.00;100697.00;107017;1284;61513;-86
2022/08/05 08:22:36;;;;;;;9.60;6.90;;;;;;;19.23;95.06;100683.71;107021;1284;64042;-86
2022/08/05 08:25:04;;;;;;;11.50;6.40;;;;;;;19.24;95.98;100669.90;106691;1284;74930;-86
2022/08/05 08:27:43;;;;;;;10.00;6.00;;;;;;;19.35;96.16;100669.46;106765;1284;71346;-87
2022/08/05 08:30:14;;;;;;;9.10;6.50;;;;;;;19.48;95.50;100674.12;106826;1284;72904;-87
2022/08/05 08:33:06;;;;;;;8.30;5.40;;;;;;;19.66;94.95;100675.54;107080;1284;63762;-87
2022/08/05 08:35:35;;;;;;;8.30;5.40;;;;;;;19.76;94.46;100676.85;106967;1284;60717;-87
2022/08/05 08:38:18;;;;;;;9.80;5.80;;;;;;;19.82;92.73;100678.02;106790;1283;75018;-86
2022/08/05 08:41:14;;;;;;;8.10;5.70;;;;;;;19.88;92.42;100693.15;107127;1284;71680;-87
2022/08/05 08:43:45;;;;;;;9.10;5.40;;;;;;;20.01;92.42;100697.90;106657;1284;71631;-87
2022/08/05 08:46:33;;;;;;;7.40;4.80;;;;;;;20.35;91.97;100720.95;106546;1284;61244;-87
2022/08/05 08:49:02;;;;;;;10.10;5.00;;;;;;;20.42;89.56;100737.25;107143;1284;61041;-86
2022/08/05 08:52:03;;;;;;;7.70;5.30;;;;;;;20.25;88.09;100735.30;106848;1284;74523;-86
2022/08/05 08:54:41;;;;;;;6.80;4.50;;;;;;;20.02;87.77;100734.50;106814;1284;71460;-86
2022/08/05 08:57:12;;;;;;;8.10;4.80;;;;;;;19.88;88.21;100733.82;107022;1283;74126;-86
2022/08/05 08:59:40;;;;;;;6.20;4.70;;;;;;;19.80;88.55;100739.56;106578;1284;62028;-85
2022/08/05 09:02:14;;;;;;;6.20;4.90;;;;;;;19.63;88.33;100737.85;106633;1283;60751;-86
2022/08/05 09:04:44;;;;;;;7.50;5.60;;;;;;;19.52;88.85;100740.55;107080;1283;76082;-86
2022/08/05 09:07:31;;;;;;;8.20;5.20;;;;;;;19.50;89.85;100754.55;106733;1284;73676;-85
2022/08/05 09:10:19;;;;;;;9.20;5.70;;;;;;;19.54;90.38;100764.77;107083;1284;72994;-85
2022/08/05 09:12:46;;;;;;;7.90;5.50;;;;;;;19.63;90.47;100766.13;106918;1282;62672;-86
2022/08/05 09:15:19;;;;;;;7.60;5.60;;;;;;;19.66;89.70;100765.96;106928;1282;60588;-85
2022/08/05 09:17:46;;;;;;;8.30;5.80;;;;;;;19.66;89.69;100758.21;106966;1282;75150;-86
2022/08/05 09:20:15;;;;;;;7.40;5.90;;;;;;;19.67;89.68;100766.38;107043;1282;72209;-86
2022/08/05 09:23:11;;;;;;;7.80;6.00;;;;;;;19.70;89.42;100779.21;107061;1284;76368;-86
2022/08/05 09:25:49;;;;;;;6.80;5.20;;;;;;;19.70;89.01;100779.77;106863;1284;61008;-85
2022/08/05 09:28:30;;;;;;;9.50;6.20;;;;;;;19.77;89.55;100771.42;107159;1284;60930;-85
2022/08/05 09:31:19;;;;;;;8.00;6.20;;;;;;;19.93;89.82;100769.95;107014;1284;74982;-85
2022/08/05 09:34:10;;;;;;;6.90;5.60;;;;;;;20.09;89.37;100772.67;107085;1282;73215;-85
2022/08/05 09:36:49;;;;;;;7.40;5.70;;;;;;;20.12;88.19;100778.23;107127;1284;74110;-85
2022/08/05 09:39:23;;;;;;;7.30;5.50;;;;;;;20.08;87.87;100779.80;107056;1282;62215;-85
2022/08/05 09:42:10;;;;;;;7.70;5.60;;;;;;;20.09;87.88;100772.13;106955;1283;59250;-85
2022/08/05 09:44:51;;;;;;;6.70;5.80;;;;;;;20.12;87.75;100775.58;106770;1283;75264;-85
2022/08/05 09:47:24;;;;;;;7.40;5.70;;;;;;;20.15;87.57;100784.71;107035;1284;73192;-85
2022/08/05 09:50:17;;;;;;;7.20;5.70;;;;;;;20.19;87.38;100787.63;107228;1284;76777;-85
2022/08/05 09:53:04;;;;;;;6.70;5.50;;;;;;;20.24;87.19;100787.48;107107;1284;64302;-85
2022/08/05 09:55:35;;;;;;;9.00;6.00;;;;;;;20.25;86.99;100794.45;106751;1283;61669;-85
2022/08/05 09:58:22;;;;;;;7.40;5.80;;;;;;;20.22;86.76;100794.87;107061;1283;77607;-85
2022/08/05 10:00:54;;;;;;;8.50;6.00;;;;;;;20.21;86.36;100795.06;106931;1284;72214;-85
2022/08/05 10:03:23;;;;;;;8.30;6.10;;;;;;;20.18;86.47;100795.48;106589;1284;72751;-84
2022/08/05 10:06:11;;;;;;;7.30;6.00;;;;;;;20.13;86.30;100793.70;106954;1283;63518;-85
2022/08/05 10:08:41;;;;;;;8.50;6.30;;;;;;;20.05;86.27;100792.61;107039;1283;60632;-85
2022/08/05 10:11:17;;;;;;;8.90;6.50;;;;;;;19.98;86.60;100797.22;106975;1284;75413;-85
2022/08/05 10:13:45;;;;;;;10.70;7.00;;;;;;;19.92;87.03;100804.70;107051;1284;71331;-85
2022/08/05 10:16:35;;;;;;;7.20;6.50;;;;;;;19.85;87.40;100804.45;106980;1284;74080;-84
2022/08/05 10:19:19;;;;;;;7.50;6.20;;;;;;;19.78;87.79;100797.29;106745;1283;63658;-84
2022/08/05 10:22:00;;;;;;;8.80;6.80;;;;;;;19.71;88.10;100798.09;106902;1283;60403;-83
2022/08/05 10:24:31;;;;;;;8.90;6.70;;;;;;;19.62;88.12;100796.32;106565;1284;74853;-83
2022/08/05 10:27:00;;;;;;;8.20;5.90;;;;;;;19.56;88.59;100800.50;107055;1283;71456;-83
2022/08/05 10:29:28;;;;;;;8.60;5.60;;;;;;;19.50;88.86;100801.98;106954;1283;73300;-83
2022/08/05 10:32:15;;;;;;;6.70;4.50;;;;;;;19.47;89.22;100804.80;106940;1284;63979;-84
2022/08/05 10:35:03;;;;;;;8.30;4.50;;;;;;;19.43;88.62;100803.03;106952;1284;61805;-84
2022/08/05 10:37:32;;;;;;;7.50;4.30;;;;;;;19.37;88.28;100799.81;106863;1284;76048;-85
2022/08/05 10:40:35;;;;;;;5.40;3.80;;;;;;;19.32;87.66;100801.64;107331;1282;72053;-86
2022/08/05 10:43:27;;;;;;;4.40;3.30;;;;;;;19.30;87.45;100798.11;106901;1283;72949;-86
2022/08/05 10:46:05;;;;;;;4.30;3.00;;;;;;;19.27;86.78;100804.73;106860;1283;61979;-87
2022/08/05 10:48:40;;;;;;;5.20;2.90;;;;;;;19.22;85.91;100827.73;107053;1284;61548;-83
2022/08/05 10:51:24;;;;;;;7.60;2.90;;;;;;;18.97;84.43;100896.36;107126;1284;75200;-83
2022/08/05 10:53:56;;;;;;;5.20;2.50;;;;;;;18.74;85.20;100901.16;106820;1282;72441;-86
2022/08/05 10:56:29;;;;;;;6.30;2.70;;;;;;;18.52;85.74;100859.02;106913;1284;72965;-83
2022/08/05 10:58:59;;;;;;;5.00;2.60;;;;;;;18.33;86.61;100857.45;107093;1284;62015;-85
2022/08/05 11:01:45;;;;;;;5.90;2.60;;;;;;;18.10;87.39;100886.16;105461;1284;2020110;-85
2022/08/05 11:04:30;;;;;;;7.20;3.10;;;;;;;17.91;88.67;100879.88;107063;1284;76075;-86
2022/08/05 11:07:05;;;;;;;5.20;3.20;;;;;;;17.84;89.95;100879.68;106814;1283;71137;-86
2022/08/05 11:09:39;;;;;;;8.10;3.30;;;;;;;17.79;90.96;100886.76;107189;1284;71805;-86
2022/08/05 11:12:39;;;;;;;5.50;3.60;;;;;;;17.77;91.91;100882.64;107046;1284;62095;-86
2022/08/05 11:15:08;;;;;;;6.50;3.60;;;;;;;17.77;92.45;100887.43;107120;1283;60008;-85
2022/08/05 11:17:50;;;;;;;8.30;3.80;;;;;;;17.76;92.44;100887.35;107224;1283;75159;-86
2022/08/05 11:20:39;;;;;;;6.10;3.70;;;;;;;17.76;92.71;100891.94;107118;1284;70126;-86
2022/08/05 11:23:34;;;;;;;5.40;3.70;;;;;;;17.76;92.96;100895.18;107183;1282;73124;-85
2022/08/05 11:26:23;;;;;;;8.50;4.40;;;;;;;17.79;93.40;100897.44;107145;1283;63203;-85
2022/08/05 11:29:01;;;;;;;7.00;4.50;;;;;;;17.84;93.41;100901.60;106973;1283;61734;-85
2022/08/05 11:31:41;;;;;;;9.40;5.00;;;;;;;17.92;93.69;100899.19;106945;1283;76089;-86
2022/08/05 11:34:44;;;;;;;8.60;5.30;;;;;;;18.01;93.54;100891.23;107142;1284;72098;-85
2022/08/05 11:37:54;;;;;;;7.60;5.00;;;;;;;18.09;93.51;100885.92;107153;1281;71654;-86
2022/08/05 11:41:00;;;;;;;8.40;5.50;;;;;;;18.19;93.82;100883.77;107406;1283;64614;-85
2022/08/05 11:43:59;;;;;;;9.20;5.90;;;;;;;18.33;94.09;100884.58;107069;1283;61959;-85
2022/08/05 11:46:37;;;;;;;9.80;5.70;;;;;;;18.44;93.50;100889.89;107271;1283;76183;-85
2022/08/05 11:49:25;;;;;;;8.30;5.40;;;;;;;18.58;93.50;100884.66;106839;1284;73702;-85
2022/08/05 11:51:53;;;;;;;9.40;5.20;;;;;;;18.76;93.09;100888.28;106888;1282;74701;-85
2022/08/05 11:54:26;;;;;;;7.50;5.00;;;;;;;18.95;92.56;100888.05;107036;1283;63570;-85
2022/08/05 11:57:02;;;;;;;8.70;4.90;;;;;;;19.14;91.77;100893.40;107027;1283;61231;-85
2022/08/05 11:59:49;;;;;;;5.30;4.00;;;;;;;19.31;90.48;100900.38;106827;1283;77104;-85